KHAB/HAB METAR and TAF weather

Enter ICAO airport designator
Station Type Date Time Source
KHAB METAR 2016/10/13 06:58 UTC NOAA

KHAB 130658Z 26008KT 7000 NSC 30/09 Q1010


Station Type Date Time Source
KHAB Decoded METAR 2016/10/13 06:58 UTC NOAA

Station name not available
Oct 13, 2016 - 02:58 AM EDT / 2016.10.13 0658 UTC
Wind: from the W (260 degrees) at 9 MPH (8 KT):0
Visibility: 4 mile(s):0
Temperature: 86 F (30 C)
Dew Point: 48 F (9 C)
Relative Humidity: 27%
Pressure (altimeter): 29.83 in. Hg (1010 hPa)
ob: KHAB 130658Z 26008KT 7000 NSC 30/09 Q1010
cycle: 7

Station Type Date Time Source
KHAB TAF UTC NOAA

Error!


Example: see airport list